createdAt,value
2023-05-19T00:01:21.546Z,88.34
2023-05-19T00:03:53.992Z,88.75
2023-05-19T00:06:26.981Z,88.24
2023-05-19T00:09:01.358Z,87.12
2023-05-19T00:11:29.261Z,85.89
2023-05-19T00:13:58.428Z,85.26
2023-05-19T00:16:27.726Z,84.74
2023-05-19T00:18:54.858Z,82.42
2023-05-19T00:21:21.948Z,82.46
2023-05-19T00:23:49.009Z,81.66
2023-05-19T00:26:16.128Z,80.76
2023-05-19T00:28:54.196Z,80.56
2023-05-19T00:31:21.489Z,80.91
2023-05-19T00:33:48.532Z,80.77
2023-05-19T00:36:15.674Z,80.96
2023-05-19T00:38:42.799Z,81.66
2023-05-19T00:41:09.860Z,82.83
2023-05-19T00:43:37.027Z,84.21
2023-05-19T00:46:04.084Z,84.84
2023-05-19T00:48:31.178Z,85.02
2023-05-19T00:51:04.398Z,85.80
2023-05-19T00:53:35.653Z,85.64
2023-05-19T00:56:03.638Z,86.13
2023-05-19T00:58:32.855Z,86.33
2023-05-19T01:01:05.266Z,87.15
2023-05-19T01:03:35.772Z,88.00
2023-05-19T01:06:07.498Z,88.79
2023-05-19T01:08:38.416Z,89.22
2023-05-19T01:11:07.002Z,90.04
2023-05-19T01:13:35.682Z,90.30
2023-05-19T01:16:14.561Z,90.85
2023-05-19T01:18:51.274Z,90.98
2023-05-19T01:22:01.173Z,91.87
2023-05-19T01:25:00.574Z,92.34
2023-05-19T01:27:32.966Z,92.77
2023-05-19T01:30:30.189Z,93.67
2023-05-19T01:33:07.367Z,94.05
2023-05-19T01:35:37.317Z,94.51
2023-05-19T01:38:07.856Z,94.28
2023-05-19T01:40:35.901Z,94.60
2023-05-19T01:43:04.003Z,95.03
2023-05-19T01:45:34.162Z,94.76
2023-05-19T01:48:04.535Z,94.58
2023-05-19T01:50:33.715Z,94.51
2023-05-19T01:53:01.771Z,94.54
2023-05-19T01:55:28.990Z,94.91
2023-05-19T01:58:22.984Z,94.73
2023-05-19T02:01:08.323Z,94.38
2023-05-19T02:04:15.595Z,93.84
2023-05-19T02:07:10.391Z,93.14
2023-05-19T02:09:55.557Z,92.79
2023-05-19T02:12:32.970Z,92.01
2023-05-19T02:15:06.650Z,91.06
2023-05-19T02:17:38.444Z,91.11
2023-05-19T02:20:06.929Z,90.73
2023-05-19T02:22:34.014Z,89.53
2023-05-19T02:25:01.123Z,89.57
2023-05-19T02:27:28.262Z,89.66
2023-05-19T02:29:55.516Z,89.13
2023-05-19T02:32:22.549Z,88.92
2023-05-19T02:34:49.552Z,88.77
2023-05-19T02:37:16.753Z,87.17
2023-05-19T02:39:44.630Z,87.79
2023-05-19T02:42:14.800Z,87.58
2023-05-19T02:44:41.906Z,86.20
2023-05-19T02:47:08.966Z,87.42
2023-05-19T02:49:36.266Z,87.52
2023-05-19T02:52:04.202Z,87.66
2023-05-19T02:54:31.682Z,87.38
2023-05-19T02:56:59.161Z,88.23
2023-05-19T02:59:26.271Z,88.00
2023-05-19T03:01:59.575Z,88.28
2023-05-19T03:04:26.749Z,87.99
2023-05-19T03:06:54.409Z,88.53
2023-05-19T03:09:21.595Z,87.77
2023-05-19T03:11:48.674Z,87.40
2023-05-19T03:14:15.817Z,86.36
2023-05-19T03:16:42.968Z,86.46
2023-05-19T03:19:10.537Z,86.71
2023-05-19T03:21:37.705Z,87.14
2023-05-19T03:24:05.088Z,85.38
2023-05-19T03:26:33.306Z,86.35
2023-05-19T03:29:01.159Z,85.51
2023-05-19T03:31:30.773Z,84.50
2023-05-19T03:33:58.947Z,84.21
2023-05-19T03:36:32.229Z,84.16
2023-05-19T03:39:00.543Z,83.58
2023-05-19T03:41:28.136Z,82.85
2023-05-19T03:43:56.159Z,82.75
2023-05-19T03:46:23.263Z,82.60
2023-05-19T03:48:50.848Z,81.35
2023-05-19T03:51:28.736Z,81.59
2023-05-19T03:54:02.462Z,81.72
2023-05-19T03:56:30.264Z,80.11
2023-05-19T03:58:57.318Z,80.84
2023-05-19T04:01:24.400Z,81.40
2023-05-19T04:03:51.465Z,80.02
2023-05-19T04:06:19.260Z,80.33
2023-05-19T04:08:46.328Z,79.20
2023-05-19T04:11:13.502Z,77.93
2023-05-19T04:13:40.641Z,78.38
2023-05-19T04:16:08.117Z,78.25
2023-05-19T04:18:35.206Z,77.43
2023-05-19T04:21:02.275Z,76.19
2023-05-19T04:23:29.346Z,76.43
2023-05-19T04:25:58.224Z,77.38
2023-05-19T04:28:25.376Z,77.45
2023-05-19T04:30:52.507Z,76.92
2023-05-19T04:33:20.249Z,76.32
2023-05-19T04:35:47.819Z,75.89
2023-05-19T04:38:19.061Z,76.31
2023-05-19T04:40:50.486Z,75.90
2023-05-19T04:43:19.463Z,75.83
2023-05-19T04:45:47.498Z,74.68
2023-05-19T04:48:15.524Z,74.62
2023-05-19T04:50:42.744Z,73.48
2023-05-19T04:53:11.630Z,73.22
2023-05-19T04:55:39.175Z,72.72
2023-05-19T04:58:07.165Z,72.07
2023-05-19T05:00:36.009Z,71.71
2023-05-19T05:03:07.342Z,71.42
2023-05-19T05:05:35.453Z,69.52
2023-05-19T05:08:03.306Z,69.14
2023-05-19T05:10:35.961Z,68.13
2023-05-19T05:13:03.374Z,67.63
2023-05-19T05:15:30.845Z,68.40
2023-05-19T05:18:01.827Z,68.53
2023-05-19T05:20:30.748Z,66.81
2023-05-19T05:22:58.161Z,67.03
2023-05-19T05:25:26.750Z,66.23
2023-05-19T05:27:54.113Z,65.30
2023-05-19T05:30:21.210Z,65.03
2023-05-19T05:32:48.519Z,65.42
2023-05-19T05:35:29.965Z,65.43
2023-05-19T05:37:57.133Z,65.34
2023-05-19T05:40:25.108Z,62.88
2023-05-19T05:42:55.637Z,63.75
2023-05-19T05:45:26.193Z,64.06
2023-05-19T05:47:54.668Z,63.44
2023-05-19T05:50:22.133Z,61.01
2023-05-19T05:52:51.223Z,59.99
2023-05-19T05:55:18.930Z,60.82
2023-05-19T05:57:48.911Z,60.44
2023-05-19T06:00:16.577Z,60.95
2023-05-19T06:02:50.873Z,60.35
2023-05-19T06:05:19.422Z,59.40
2023-05-19T06:07:47.652Z,58.01
2023-05-19T06:10:20.081Z,57.73
2023-05-19T06:12:48.658Z,57.84
2023-05-19T06:15:16.127Z,55.70
2023-05-19T06:17:50.982Z,55.69
2023-05-19T06:20:20.062Z,56.00
2023-05-19T06:22:47.061Z,55.51
2023-05-19T06:25:15.959Z,55.19
2023-05-19T06:27:43.159Z,54.76
2023-05-19T06:30:10.505Z,54.41
2023-05-19T06:32:52.050Z,53.63
2023-05-19T06:35:19.262Z,51.48
2023-05-19T06:37:46.421Z,51.51
2023-05-19T06:40:13.792Z,50.67
2023-05-19T06:42:42.805Z,50.23
2023-05-19T06:45:31.188Z,50.64
2023-05-19T06:48:01.103Z,49.80
2023-05-19T06:50:28.863Z,50.01
2023-05-19T06:52:57.489Z,49.99
2023-05-19T06:55:25.075Z,49.69
2023-05-19T06:57:52.107Z,50.23
2023-05-19T07:00:22.149Z,49.55
2023-05-19T07:02:52.169Z,49.59
2023-05-19T07:05:20.130Z,49.34
2023-05-19T07:07:52.509Z,49.47
2023-05-19T07:10:24.117Z,49.25
2023-05-19T07:12:52.202Z,47.98
2023-05-19T07:15:21.906Z,48.20
2023-05-19T07:17:49.039Z,47.73
2023-05-19T07:20:16.108Z,46.59
2023-05-19T07:22:43.148Z,47.49
2023-05-19T07:25:10.484Z,47.20
2023-05-19T07:27:37.709Z,46.49
2023-05-19T07:30:05.056Z,46.96
2023-05-19T07:32:32.180Z,47.29
2023-05-19T07:34:59.303Z,46.31
2023-05-19T07:37:26.561Z,45.93
2023-05-19T07:39:53.679Z,45.02
2023-05-19T07:42:20.826Z,45.16
2023-05-19T07:44:47.912Z,45.36
2023-05-19T07:47:14.969Z,44.83
2023-05-19T07:49:42.042Z,45.21
2023-05-19T07:52:09.242Z,44.79
2023-05-19T07:54:36.306Z,44.89
2023-05-19T07:57:03.428Z,44.48
2023-05-19T07:59:30.631Z,44.52
2023-05-19T08:01:57.694Z,44.47
2023-05-19T08:04:24.852Z,43.32
2023-05-19T08:06:53.183Z,42.90
2023-05-19T08:09:20.261Z,42.67
2023-05-19T08:11:47.352Z,42.55
2023-05-19T08:14:14.441Z,43.02
2023-05-19T08:16:43.248Z,42.46
2023-05-19T08:19:10.383Z,41.89
2023-05-19T08:21:37.619Z,41.06
2023-05-19T08:24:04.741Z,40.68
2023-05-19T08:26:31.774Z,40.41
2023-05-19T08:28:58.811Z,40.40
2023-05-19T08:31:25.984Z,41.82
2023-05-19T08:33:53.059Z,41.73
2023-05-19T08:36:20.104Z,40.91
2023-05-19T08:38:47.140Z,40.37
2023-05-19T08:41:14.233Z,38.80
2023-05-19T08:43:41.389Z,40.89
2023-05-19T08:46:11.449Z,39.55
2023-05-19T08:48:42.422Z,39.97
2023-05-19T08:51:22.351Z,40.56
2023-05-19T08:53:51.964Z,39.76
2023-05-19T08:56:22.748Z,39.52
2023-05-19T08:58:51.447Z,40.00
2023-05-19T09:01:20.511Z,40.67
2023-05-19T09:03:50.070Z,39.62
2023-05-19T09:06:17.620Z,39.63
2023-05-19T09:08:45.203Z,39.07
2023-05-19T09:11:12.805Z,39.16
2023-05-19T09:13:39.996Z,37.62
2023-05-19T09:16:08.483Z,37.11
2023-05-19T09:18:39.791Z,37.49
2023-05-19T09:21:07.672Z,38.42
2023-05-19T09:23:35.096Z,38.36
2023-05-19T09:26:08.730Z,39.84
2023-05-19T09:28:36.925Z,40.36
2023-05-19T09:31:04.004Z,39.37
2023-05-19T09:33:34.106Z,38.73
2023-05-19T09:36:01.513Z,38.58
2023-05-19T09:38:28.621Z,35.93
2023-05-19T09:41:00.968Z,36.06
2023-05-19T09:43:29.864Z,36.19
2023-05-19T10:17:41.633Z,37.80
2023-05-19T10:20:11.090Z,37.26
2023-05-19T10:22:39.053Z,36.79
2023-05-19T10:25:07.204Z,35.67
2023-05-19T10:27:37.869Z,35.18
2023-05-19T10:30:11.836Z,35.81
2023-05-19T10:32:43.017Z,35.50
2023-05-19T10:35:32.638Z,36.73
2023-05-19T10:38:14.861Z,38.12
2023-05-19T10:41:05.079Z,38.27
2023-05-19T10:44:07.852Z,38.23
2023-05-19T10:46:35.338Z,39.53
2023-05-19T10:49:02.453Z,37.76
2023-05-19T10:51:32.878Z,37.35
2023-05-19T10:54:03.161Z,35.71
2023-05-19T10:56:31.383Z,36.12
2023-05-19T10:58:58.482Z,36.05
2023-05-19T11:01:32.548Z,36.21
2023-05-19T11:04:06.455Z,38.02
2023-05-19T11:06:36.350Z,37.65
2023-05-19T11:09:31.062Z,38.01
2023-05-19T11:12:05.578Z,36.28
2023-05-19T11:14:33.183Z,35.61
2023-05-19T11:17:00.788Z,35.42
2023-05-19T11:19:31.462Z,36.18
2023-05-19T11:22:12.467Z,35.97
2023-05-19T11:24:47.979Z,35.71
2023-05-19T11:27:31.830Z,35.12
2023-05-19T11:30:09.574Z,36.41
2023-05-19T11:32:39.779Z,35.45
2023-05-19T11:35:08.190Z,36.46
2023-05-19T11:37:35.945Z,37.27
2023-05-19T11:40:07.310Z,35.89
2023-05-19T11:42:35.477Z,34.61
2023-05-19T11:45:03.162Z,35.78
2023-05-19T11:47:42.609Z,36.38
2023-05-19T11:50:20.498Z,36.98
2023-05-19T11:52:48.228Z,36.11
2023-05-19T11:55:22.265Z,35.24
2023-05-19T12:00:37.262Z,32.63
2023-05-19T12:03:05.373Z,34.43
2023-05-19T12:05:36.543Z,32.62
2023-05-19T12:08:06.712Z,34.06
2023-05-19T12:10:35.734Z,34.07
2023-05-19T12:13:03.794Z,33.79
2023-05-19T12:15:32.179Z,34.22
2023-05-19T12:18:01.165Z,32.08
2023-05-19T12:20:32.595Z,33.17
2023-05-19T12:23:01.270Z,32.76
2023-05-19T12:25:29.998Z,31.55
2023-05-19T12:28:01.045Z,32.73
2023-05-19T12:30:29.915Z,32.26
2023-05-19T12:33:00.212Z,32.87
2023-05-19T12:35:33.358Z,33.16
2023-05-19T12:38:06.890Z,32.49
2023-05-19T12:40:37.923Z,33.87
2023-05-19T12:43:06.978Z,32.96
2023-05-19T12:45:35.728Z,31.83
2023-05-19T12:48:23.066Z,33.09
2023-05-19T12:50:55.901Z,30.84
2023-05-19T12:53:23.134Z,30.84
2023-05-19T12:55:53.153Z,30.84
2023-05-19T12:58:21.656Z,30.70
2023-05-19T13:00:49.990Z,31.44
2023-05-19T13:03:21.041Z,30.81
2023-05-19T13:05:50.769Z,31.14
2023-05-19T13:08:20.320Z,30.68
2023-05-19T13:10:49.800Z,31.05
2023-05-19T13:13:17.477Z,30.57
2023-05-19T13:15:46.273Z,30.14
2023-05-19T13:18:13.902Z,29.90
2023-05-19T13:20:42.737Z,29.41
2023-05-19T13:23:13.571Z,30.40
2023-05-19T13:25:41.646Z,30.36
2023-05-19T13:28:09.848Z,28.88
2023-05-19T13:30:39.605Z,29.91
2023-05-19T13:33:07.557Z,29.62
2023-05-19T13:35:37.555Z,29.81
2023-05-19T13:38:10.438Z,29.62
2023-05-19T13:40:38.516Z,29.28
2023-05-19T13:43:06.205Z,28.93
2023-05-19T13:45:33.709Z,28.50
2023-05-19T13:48:00.837Z,27.87
2023-05-19T13:50:27.848Z,28.31
2023-05-19T13:52:55.059Z,27.95
2023-05-19T13:55:23.423Z,27.12
2023-05-19T13:57:51.025Z,28.48
2023-05-19T14:00:19.163Z,29.14
2023-05-19T14:02:46.602Z,28.94
2023-05-19T14:05:13.932Z,29.13
2023-05-19T14:07:41.466Z,29.65
2023-05-19T14:10:09.089Z,30.09
2023-05-19T14:12:49.571Z,30.96
2023-05-19T14:15:23.872Z,31.36
2023-05-19T14:17:51.134Z,32.42
2023-05-19T14:20:18.255Z,31.53
2023-05-19T14:22:45.310Z,31.92
2023-05-19T14:25:12.339Z,32.13
2023-05-19T14:27:42.250Z,32.14
2023-05-19T14:30:09.725Z,31.88
2023-05-19T14:32:36.827Z,31.65
2023-05-19T14:35:04.446Z,31.38
2023-05-19T14:37:32.405Z,31.71
2023-05-19T14:40:00.032Z,31.55
2023-05-19T14:42:27.057Z,31.91
2023-05-19T14:44:54.063Z,31.08
2023-05-19T14:47:21.150Z,31.44
2023-05-19T14:49:48.342Z,31.73
2023-05-19T14:52:15.427Z,32.38
2023-05-19T14:54:42.408Z,31.91
2023-05-19T14:57:09.429Z,31.09
2023-05-19T14:59:39.309Z,32.25
2023-05-19T15:02:06.694Z,32.62
2023-05-19T15:04:33.792Z,32.68
2023-05-19T15:09:30.895Z,31.45
2023-05-19T15:11:58.183Z,31.80
2023-05-19T15:14:25.931Z,31.99
2023-05-19T15:16:54.272Z,33.01
2023-05-19T15:19:21.470Z,32.25
2023-05-19T15:21:50.615Z,32.65
2023-05-19T15:24:17.638Z,32.76
2023-05-19T15:26:44.937Z,33.08
2023-05-19T15:29:11.961Z,32.08
2023-05-19T15:31:39.103Z,32.56
2023-05-19T15:34:06.393Z,32.46
2023-05-19T15:36:33.396Z,32.83
2023-05-19T15:39:00.538Z,33.40
2023-05-19T15:41:27.595Z,33.76
2023-05-19T15:43:54.630Z,33.11
2023-05-19T15:46:21.678Z,33.94
2023-05-19T15:48:48.840Z,33.05
2023-05-19T15:51:16.742Z,33.79
2023-05-19T15:53:43.889Z,33.77
2023-05-19T15:56:11.111Z,33.22
2023-05-19T15:58:38.165Z,33.59
2023-05-19T16:01:05.571Z,33.98
2023-05-19T16:03:32.840Z,33.64
2023-05-19T16:06:01.110Z,33.61
2023-05-19T16:08:28.785Z,33.67
2023-05-19T16:10:56.077Z,34.04
2023-05-19T16:13:23.159Z,33.97
2023-05-19T16:15:50.243Z,33.85
2023-05-19T16:18:17.354Z,34.22
2023-05-19T16:20:44.918Z,34.55
2023-05-19T16:23:11.992Z,34.39
2023-05-19T16:25:39.033Z,34.54
2023-05-19T16:28:06.328Z,34.51
2023-05-19T16:30:33.610Z,35.31
2023-05-19T16:33:01.000Z,35.52
2023-05-19T16:35:29.808Z,35.71
2023-05-19T16:37:56.923Z,35.72
2023-05-19T16:40:24.178Z,35.92
2023-05-19T16:42:53.288Z,35.79
2023-05-19T16:45:20.408Z,36.45
2023-05-19T16:47:47.628Z,36.73
2023-05-19T16:50:14.686Z,36.26
2023-05-19T16:52:41.721Z,36.49
2023-05-19T16:55:09.475Z,36.73
2023-05-19T16:57:36.522Z,37.00
2023-05-19T17:00:04.147Z,36.69
2023-05-19T17:02:31.510Z,37.47
2023-05-19T17:04:58.727Z,37.58
2023-05-19T17:07:28.051Z,37.97
2023-05-19T17:09:56.076Z,38.21
2023-05-19T17:12:23.587Z,38.79
2023-05-19T17:14:52.216Z,39.72
2023-05-19T17:17:19.511Z,39.64
2023-05-19T17:19:46.997Z,40.48
2023-05-19T17:22:14.245Z,41.07
2023-05-19T17:24:41.487Z,40.87
2023-05-19T17:27:08.707Z,41.15
2023-05-19T17:29:36.857Z,40.84
2023-05-19T17:32:04.572Z,41.02
2023-05-19T17:34:31.624Z,41.60
2023-05-19T17:36:58.704Z,41.84
2023-05-19T17:39:25.816Z,42.25
2023-05-19T17:41:53.167Z,42.51
2023-05-19T17:44:20.264Z,42.60
2023-05-19T17:46:47.308Z,42.57
2023-05-19T17:49:15.528Z,43.44
2023-05-19T17:51:42.898Z,44.72
2023-05-19T17:54:10.016Z,44.59
2023-05-19T17:56:42.714Z,47.58
2023-05-19T17:59:10.095Z,49.76
2023-05-19T18:01:37.501Z,51.74
2023-05-19T18:04:05.130Z,52.79
2023-05-19T18:06:32.493Z,53.81
2023-05-19T18:09:02.332Z,55.63
2023-05-19T18:11:29.543Z,56.61
2023-05-19T18:13:57.444Z,57.00
2023-05-19T18:16:25.788Z,57.63
2023-05-19T18:18:53.501Z,58.33
2023-05-19T18:21:20.658Z,58.89
2023-05-19T18:23:48.158Z,59.54
2023-05-19T18:26:15.495Z,60.33
2023-05-19T18:28:43.504Z,60.90
2023-05-19T18:31:15.774Z,60.47
2023-05-19T18:33:43.691Z,60.88
2023-05-19T18:36:10.896Z,61.33
2023-05-19T18:38:37.941Z,62.11
2023-05-19T18:41:07.835Z,62.63
2023-05-19T18:43:34.954Z,63.46
2023-05-19T18:46:02.188Z,63.77
2023-05-19T18:48:29.587Z,64.19
2023-05-19T18:50:57.395Z,64.59
2023-05-19T18:53:24.511Z,65.08
2023-05-19T18:55:51.565Z,65.71
2023-05-19T18:58:19.040Z,65.83
2023-05-19T19:00:46.387Z,65.96
2023-05-19T19:03:13.558Z,66.45
2023-05-19T19:05:40.851Z,67.20
2023-05-19T19:08:08.036Z,67.85
2023-05-19T19:10:39.141Z,67.48
2023-05-19T19:13:06.788Z,67.96
2023-05-19T19:15:33.839Z,67.88
2023-05-19T19:18:01.061Z,68.06
2023-05-19T19:20:28.274Z,68.23
2023-05-19T19:22:55.286Z,68.07
2023-05-19T19:25:23.641Z,68.44
2023-05-19T19:27:51.325Z,68.67
2023-05-19T19:30:18.432Z,68.20
2023-05-19T19:32:45.985Z,68.46
2023-05-19T19:35:13.122Z,68.59
2023-05-19T19:37:40.182Z,69.11
2023-05-19T19:40:07.749Z,68.99
2023-05-19T19:42:35.046Z,69.33
2023-05-19T19:45:02.323Z,69.74
2023-05-19T19:47:29.463Z,70.02
2023-05-19T19:49:56.545Z,69.74
2023-05-19T19:52:23.836Z,69.71
2023-05-19T19:54:51.260Z,69.51
2023-05-19T19:57:18.547Z,69.01
2023-05-19T19:59:45.770Z,69.40
2023-05-19T20:02:12.880Z,69.76
2023-05-19T20:04:39.967Z,70.00
2023-05-19T20:07:06.983Z,70.01
2023-05-19T20:09:34.011Z,69.90
2023-05-19T20:12:01.278Z,69.67
2023-05-19T20:14:28.502Z,69.54
2023-05-19T20:16:55.762Z,69.70
2023-05-19T20:19:27.891Z,69.29
2023-05-19T20:21:55.078Z,69.34
2023-05-19T20:24:22.193Z,69.84
2023-05-19T20:26:49.301Z,69.82
2023-05-19T20:29:16.988Z,69.73
2023-05-19T20:31:46.568Z,69.52
2023-05-19T20:34:13.787Z,69.83
2023-05-19T20:36:41.184Z,69.98
2023-05-19T20:39:10.209Z,69.86
2023-05-19T20:41:37.338Z,70.06
2023-05-19T20:44:04.571Z,69.98
2023-05-19T20:46:31.764Z,69.75
2023-05-19T20:48:59.896Z,69.99
2023-05-19T20:51:27.453Z,69.63
2023-05-19T20:53:54.602Z,69.17
2023-05-19T20:56:22.733Z,69.06
2023-05-19T20:58:49.776Z,69.17
2023-05-19T21:01:17.039Z,68.29
2023-05-19T21:03:44.322Z,67.60
2023-05-19T21:06:11.577Z,66.96
2023-05-19T21:08:38.672Z,66.78
2023-05-19T21:11:05.897Z,66.07
2023-05-19T21:13:34.059Z,65.75
2023-05-19T21:16:01.114Z,65.73
2023-05-19T21:18:29.033Z,66.17
2023-05-19T21:20:56.237Z,65.76
2023-05-19T21:23:23.284Z,65.46
2023-05-19T21:25:50.806Z,65.16
2023-05-19T21:28:17.980Z,64.99
2023-05-19T21:30:48.430Z,64.97
2023-05-19T21:33:16.153Z,65.38
2023-05-19T21:35:44.866Z,65.31
2023-05-19T21:38:22.618Z,65.12
2023-05-19T21:40:52.016Z,66.28
2023-05-19T21:43:19.730Z,66.02
2023-05-19T21:45:46.790Z,66.58
2023-05-19T21:48:13.939Z,66.96
2023-05-19T21:50:41.006Z,67.37
2023-05-19T21:53:08.122Z,67.69
2023-05-19T21:55:35.267Z,67.46
2023-05-19T21:58:02.883Z,67.99
2023-05-19T22:00:30.268Z,67.78
2023-05-19T22:02:58.018Z,67.25
2023-05-19T22:05:25.167Z,67.28
2023-05-19T22:07:52.402Z,67.00
2023-05-19T22:10:19.680Z,66.83
2023-05-19T22:12:46.941Z,67.07
2023-05-19T22:15:14.637Z,67.07
2023-05-19T22:17:42.370Z,67.05
2023-05-19T22:20:09.966Z,67.02
2023-05-19T22:22:37.084Z,67.36
2023-05-19T22:25:04.829Z,67.18
2023-05-19T22:27:32.112Z,67.02
2023-05-19T22:29:59.963Z,65.72
2023-05-19T22:32:27.178Z,66.49
2023-05-19T22:34:54.422Z,66.58
2023-05-19T22:37:23.716Z,66.46
2023-05-19T22:39:51.380Z,66.41
2023-05-19T22:42:18.785Z,66.85
2023-05-19T22:44:46.155Z,67.55
2023-05-19T22:47:14.007Z,68.02
2023-05-19T22:49:42.468Z,68.54
2023-05-19T22:52:11.214Z,68.80
2023-05-19T22:54:38.788Z,69.32
2023-05-19T22:57:06.684Z,69.89
2023-05-19T22:59:33.938Z,69.71
2023-05-19T23:02:01.502Z,69.72
2023-05-19T23:04:28.646Z,69.57
2023-05-19T23:06:56.008Z,69.49
2023-05-19T23:09:23.099Z,70.42
2023-05-19T23:11:50.350Z,70.57
2023-05-19T23:14:18.628Z,70.45
2023-05-19T23:16:46.315Z,70.40
2023-05-19T23:19:13.491Z,71.08
2023-05-19T23:21:41.387Z,71.38
2023-05-19T23:24:08.530Z,71.49
2023-05-19T23:26:35.606Z,70.63
2023-05-19T23:29:02.782Z,72.33
2023-05-19T23:31:29.914Z,72.63
2023-05-19T23:33:57.036Z,73.30
2023-05-19T23:36:24.179Z,73.75
2023-05-19T23:38:51.259Z,74.67
2023-05-19T23:41:18.330Z,75.31
2023-05-19T23:43:45.363Z,75.55
2023-05-19T23:46:12.649Z,75.80
2023-05-19T23:48:39.746Z,76.25
2023-05-19T23:51:06.917Z,76.74
2023-05-19T23:53:33.989Z,77.11
2023-05-19T23:56:01.293Z,77.17
2023-05-19T23:58:28.448Z,77.00
